Time;durP1;ratioP1;P1;durP2;ratioP2;P2;SDS_P1;SDS_P2;PMS_P1;PMS_P2;Temp;Humidity;BMP_temperature;BMP_pressure;BME280_temperature;BME280_humidity;BME280_pressure;Samples;Min_cycle;Max_cycle;Signal;HPM_P1;HPM_P2
2022/09/21 00:02:08;;;;;;;2.00;1.65;;;;;;;21.91;49.73;100630.81;20569003;28;20054;-75
2022/09/21 00:12:08;;;;;;;2.42;1.85;;;;;;;21.87;49.91;100629.38;20635729;28;20192;-74
2022/09/21 00:22:09;;;;;;;2.03;1.40;;;;;;;21.87;49.82;100629.38;20571844;28;20062;-75
2022/09/21 00:32:10;;;;;;;2.38;1.73;;;;;;;21.86;49.78;100638.25;20618374;28;20474;-75
2022/09/21 00:42:32;;;;;;;2.03;1.52;;;;;;;21.85;50.17;100639.19;20603027;28;20104;-74
2022/09/21 00:52:36;;;;;;;2.22;1.40;;;;;;;21.84;50.17;100637.53;20632900;28;20039;-75
2022/09/21 01:02:37;;;;;;;3.88;1.70;;;;;;;21.83;49.88;100645.56;20627627;28;20078;-74
2022/09/21 01:13:04;;;;;;;2.15;1.80;;;;;;;21.82;49.80;100649.13;20567546;28;20047;-74
2022/09/21 01:23:19;;;;;;;1.92;1.30;;;;;;;21.81;49.84;100644.81;20596411;28;20169;-74
2022/09/21 01:33:31;;;;;;;1.70;1.50;;;;;;;21.79;50.26;100633.53;20571494;28;20056;-74
2022/09/21 01:43:37;;;;;;;2.15;1.70;;;;;;;21.79;49.97;100644.09;20572679;28;20180;-74
2022/09/21 01:53:43;;;;;;;1.50;1.40;;;;;;;21.79;50.09;100646.72;20632397;28;20042;-74
2022/09/21 02:03:49;;;;;;;1.50;1.33;;;;;;;21.77;50.19;100651.28;20631429;28;20154;-74
2022/09/21 02:13:52;;;;;;;2.10;1.50;;;;;;;21.74;50.01;100657.63;20618598;28;20058;-73
2022/09/21 02:24:20;;;;;;;1.70;1.50;;;;;;;21.73;49.89;100662.06;20639509;28;20030;-79
2022/09/21 02:34:32;;;;;;;2.17;1.48;;;;;;;21.72;49.98;100660.38;20625303;28;20051;-74
2022/09/21 02:44:41;;;;;;;1.73;1.50;;;;;;;21.72;50.07;100664.81;20589159;28;20046;-74
2022/09/21 02:54:46;;;;;;;2.45;1.10;;;;;;;21.71;50.22;100676.31;20570605;28;20070;-74
2022/09/21 03:04:47;;;;;;;1.90;1.20;;;;;;;21.70;50.33;100672.84;20572674;28;20047;-74
2022/09/21 03:14:50;;;;;;;1.60;1.27;;;;;;;21.68;49.97;100684.44;20560003;28;20066;-74
2022/09/21 03:24:50;;;;;;;1.48;1.10;;;;;;;21.67;50.31;100686.22;20559693;28;20042;-74
2022/09/21 03:34:51;;;;;;;1.65;1.50;;;;;;;21.64;50.41;100691.75;20558364;28;20069;-74
2022/09/21 03:44:51;;;;;;;1.13;1.02;;;;;;;21.64;49.86;100699.66;20566837;28;20036;-74
2022/09/21 03:54:51;;;;;;;1.60;1.30;;;;;;;21.63;49.86;100700.59;20559726;28;20050;-74
2022/09/21 04:04:52;;;;;;;1.48;1.20;;;;;;;21.62;50.27;100704.19;20564304;28;20039;-73
2022/09/21 04:14:53;;;;;;;4.10;1.27;;;;;;;21.68;51.15;100710.78;20580380;28;20401;-74
2022/09/21 04:24:53;;;;;;;2.55;1.15;;;;;;;21.73;51.65;100708.66;20611822;28;20057;-77
2022/09/21 04:34:54;;;;;;;6.88;1.40;;;;;;;21.75;52.75;100718.13;20565008;28;20038;-77
2022/09/21 04:44:55;;;;;;;8.10;1.83;;;;;;;21.78;52.56;100732.88;20562959;28;20041;-75
2022/09/21 04:54:58;;;;;;;11.75;2.10;;;;;;;21.68;50.61;100740.63;20555989;28;20046;-77
2022/09/21 05:04:58;;;;;;;11.10;3.33;;;;;;;21.28;46.54;100749.59;20593223;28;20054;-76
2022/09/21 05:15:00;;;;;;;17.60;3.10;;;;;;;21.46;48.04;100737.84;20542379;28;20046;-75
2022/09/21 05:25:00;;;;;;;12.73;2.67;;;;;;;21.51;49.10;100762.09;20542825;28;20041;-77
2022/09/21 05:35:22;;;;;;;10.57;2.45;;;;;;;21.56;49.74;100758.19;20551320;28;20054;-78
2022/09/21 05:45:23;;;;;;;11.37;2.30;;;;;;;21.59;50.00;100760.59;20603114;28;20390;-75
2022/09/21 05:56:06;;;;;;;11.50;3.47;;;;;;;21.62;50.27;100766.56;20628005;28;20190;-76
2022/09/21 06:06:08;;;;;;;12.52;2.85;;;;;;;21.62;50.49;100766.56;20633204;28;20128;-76
2022/09/21 06:16:08;;;;;;;17.65;2.90;;;;;;;21.64;50.77;100780.50;20572600;28;20080;-76
2022/09/21 06:26:09;;;;;;;9.15;3.00;;;;;;;21.66;50.51;100781.22;20541529;28;20042;-76
2022/09/21 06:36:09;;;;;;;6.00;2.33;;;;;;;21.69;50.56;100792.38;20549801;28;20046;-76
2022/09/21 06:46:10;;;;;;;6.32;2.28;;;;;;;21.68;50.75;100801.25;20557697;28;20177;-76
2022/09/21 06:56:11;;;;;;;7.63;2.30;;;;;;;21.68;50.47;100803.88;20556076;28;20106;-76
2022/09/21 07:06:13;;;;;;;5.40;2.20;;;;;;;21.71;50.76;100801.00;20551486;28;20076;-76
2022/09/21 07:16:13;;;;;;;5.70;1.83;;;;;;;21.73;50.60;100798.28;20568865;28;21907;-76
2022/09/21 07:26:14;;;;;;;3.20;1.98;;;;;;;21.75;50.38;100799.84;20614425;28;20050;-76
2022/09/21 07:36:16;;;;;;;5.65;2.35;;;;;;;21.77;50.34;100804.16;20631770;28;20054;-76
2022/09/21 07:46:17;;;;;;;4.93;2.90;;;;;;;21.79;50.43;100807.50;20630595;28;20035;-76
2022/09/21 07:56:19;;;;;;;4.45;2.47;;;;;;;21.80;50.43;100807.44;20652664;28;20070;-76
2022/09/21 08:06:20;;;;;;;11.60;2.50;;;;;;;21.82;50.25;100802.84;20646284;28;20080;-75
2022/09/21 08:16:21;;;;;;;9.30;2.00;;;;;;;21.85;50.21;100802.66;20636794;28;20050;-76
2022/09/21 08:26:22;;;;;;;3.30;2.22;;;;;;;21.88;50.25;100807.69;20562972;28;20070;-76
2022/09/21 08:36:23;;;;;;;4.28;2.47;;;;;;;21.90;50.18;100805.78;20546627;28;20054;-74
2022/09/21 08:46:27;;;;;;;3.67;2.30;;;;;;;21.93;50.36;100817.88;20552697;28;20035;-75
2022/09/21 08:56:29;;;;;;;4.68;2.58;;;;;;;21.97;49.97;100815.88;20562769;28;20043;-75
2022/09/21 09:07:03;;;;;;;4.35;2.60;;;;;;;21.99;50.36;100812.16;20581053;28;20104;-75
2022/09/21 09:17:09;;;;;;;6.97;3.45;;;;;;;22.03;50.01;100807.50;20567290;28;20104;-76
2022/09/21 09:27:19;;;;;;;5.30;2.72;;;;;;;21.85;44.80;100807.06;20576693;28;20044;-76
2022/09/21 09:37:27;;;;;;;9.15;2.50;;;;;;;21.57;41.89;100804.66;20551053;28;20061;-76
2022/09/21 09:47:49;;;;;;;5.35;2.53;;;;;;;21.80;45.09;100798.66;20547710;28;20038;-74
2022/09/21 09:57:49;;;;;;;4.68;2.40;;;;;;;21.91;46.77;100796.91;20540769;28;20049;-76
2022/09/21 10:07:51;;;;;;;2.45;2.15;;;;;;;22.02;47.13;100797.91;20575371;28;20034;-76
2022/09/21 10:18:10;;;;;;;3.45;2.63;;;;;;;22.10;47.95;100778.88;20625449;28;20058;-76
2022/09/21 10:28:12;;;;;;;3.83;3.10;;;;;;;22.15;48.13;100774.09;20560665;28;20077;-76
2022/09/21 10:38:17;;;;;;;3.67;2.90;;;;;;;22.23;48.53;100767.28;20550667;28;20039;-76
2022/09/21 10:48:21;;;;;;;3.67;2.72;;;;;;;22.29;48.62;100762.50;20552017;28;20058;-76
2022/09/21 10:58:24;;;;;;;4.00;2.83;;;;;;;22.36;48.52;100763.69;20552660;28;20085;-74
2022/09/21 11:08:48;;;;;;;4.10;2.83;;;;;;;22.35;48.56;100762.88;20566108;28;20121;-73
2022/09/21 11:19:17;;;;;;;3.88;2.25;;;;;;;22.43;48.25;100750.94;20625364;28;20083;-76
2022/09/21 11:29:25;;;;;;;3.08;2.40;;;;;;;22.53;48.41;100742.19;20628329;28;20042;-75
2022/09/21 11:39:31;;;;;;;3.15;2.67;;;;;;;22.55;48.80;100742.88;20606546;28;20043;-76
2022/09/21 11:49:37;;;;;;;2.88;2.58;;;;;;;22.60;49.03;100736.44;20570961;28;20090;-76
2022/09/21 11:59:50;;;;;;;3.90;2.67;;;;;;;22.59;48.70;100722.38;20576482;28;20042;-76
2022/09/21 12:10:12;;;;;;;3.17;2.60;;;;;;;22.65;48.13;100706.06;20568262;28;21562;-76
2022/09/21 12:20:40;;;;;;;2.10;1.90;;;;;;;22.68;45.98;100703.19;20540447;28;20121;-76
2022/09/21 12:30:44;;;;;;;11.50;2.13;;;;;;;22.70;44.16;100692.50;20614025;28;20112;-76
2022/09/21 12:40:50;;;;;;;2.85;1.10;;;;;;;22.76;38.75;100688.53;20529846;28;20042;-76
2022/09/21 12:50:56;;;;;;;2.08;1.00;;;;;;;22.57;36.65;100707.63;20511232;28;20047;-76
2022/09/21 13:01:31;;;;;;;2.20;0.77;;;;;;;22.62;34.58;100693.13;20547660;28;20117;-78
2022/09/21 13:11:33;;;;;;;4.28;0.75;;;;;;;22.56;35.21;100683.03;20533528;28;20038;-77
2022/09/21 13:21:33;;;;;;;9.90;1.00;;;;;;;22.73;38.36;100679.06;20537766;28;21532;-78
2022/09/21 13:31:56;;;;;;;1.55;1.00;;;;;;;22.79;38.58;100678.59;20544823;28;20042;-77
2022/09/21 13:41:56;;;;;;;1.00;0.80;;;;;;;22.82;38.12;100667.75;20506176;28;22108;-79
2022/09/21 13:52:04;;;;;;;2.03;0.70;;;;;;;22.85;33.23;100670.16;20502346;28;20051;-77
2022/09/21 14:02:21;;;;;;;1.73;0.80;;;;;;;22.90;36.84;100664.53;20530116;28;20042;-78
2022/09/21 14:12:24;;;;;;;1.10;0.57;;;;;;;22.84;34.48;100665.03;20604920;28;21454;-77
2022/09/21 14:22:26;;;;;;;3.03;0.70;;;;;;;22.96;38.01;100661.38;20600473;28;20497;-76
2022/09/21 14:32:41;;;;;;;3.00;0.90;;;;;;;23.08;40.04;100664.00;20562427;28;20052;-76
2022/09/21 14:42:42;;;;;;;2.70;0.90;;;;;;;23.21;41.13;100667.34;20595569;28;20284;-76
2022/09/21 14:53:01;;;;;;;2.90;1.10;;;;;;;23.25;41.85;100652.91;20596449;28;20060;-77
2022/09/21 15:03:17;;;;;;;5.47;0.90;;;;;;;23.33;42.09;100655.75;20552328;28;20053;-76
2022/09/21 15:13:31;;;;;;;2.97;1.10;;;;;;;23.41;42.41;100649.84;20586719;28;20050;-77
2022/09/21 15:23:33;;;;;;;2.15;0.88;;;;;;;23.41;42.78;100660.44;20593503;28;20667;-78
2022/09/21 15:33:38;;;;;;;7.05;1.10;;;;;;;23.43;42.90;100661.13;20524733;28;20053;-76
2022/09/21 15:43:39;;;;;;;5.05;1.15;;;;;;;23.48;42.95;100663.38;20562382;28;20082;-73
2022/09/21 15:53:53;;;;;;;4.95;1.38;;;;;;;23.48;42.74;100674.78;20530359;28;20085;-74
2022/09/21 16:04:06;;;;;;;9.02;1.50;;;;;;;23.46;43.25;100695.22;20584413;28;20097;-72
2022/09/21 16:24:32;;;;;;;8.52;1.73;;;;;;;23.38;43.68;100697.66;20590252;28;20034;-72
2022/09/21 16:34:35;;;;;;;3.92;2.95;;;;;;;23.34;44.14;100709.47;20537490;28;20114;-74
2022/09/21 16:44:43;;;;;;;3.05;1.90;;;;;;;22.92;38.96;100719.84;20531268;28;20360;-75
2022/09/21 16:54:44;;;;;;;4.15;2.17;;;;;;;22.89;41.90;100718.28;20530566;28;20042;-75
2022/09/21 17:04:46;;;;;;;2.60;1.95;;;;;;;22.96;42.58;100731.81;20554029;28;20039;-74
2022/09/21 17:14:46;;;;;;;3.90;2.10;;;;;;;22.94;43.47;100746.97;20533117;28;21223;-74
2022/09/21 17:24:51;;;;;;;3.40;2.10;;;;;;;22.94;44.67;100752.25;20531401;28;20158;-76
2022/09/21 17:35:00;;;;;;;5.22;2.00;;;;;;;22.91;45.06;100761.25;20535059;28;20054;-75
2022/09/21 17:45:11;;;;;;;4.47;1.90;;;;;;;22.88;45.47;100777.34;20545002;28;20125;-75
2022/09/21 17:55:12;;;;;;;4.97;2.05;;;;;;;22.79;45.77;100783.31;20537252;28;20050;-74
2022/09/21 18:05:27;;;;;;;5.38;2.20;;;;;;;22.72;46.37;100793.53;20536150;28;20049;-70
2022/09/21 18:15:36;;;;;;;5.88;2.78;;;;;;;22.70;46.27;100795.44;20561324;28;20137;-70
2022/09/21 18:25:48;;;;;;;9.98;3.03;;;;;;;22.66;46.09;100805.41;20558688;28;20177;-70
2022/09/21 18:36:02;;;;;;;5.83;3.23;;;;;;;22.65;45.98;100806.34;20552049;28;20050;-78
2022/09/21 18:46:08;;;;;;;7.50;3.60;;;;;;;22.63;45.55;100810.06;20564165;28;20035;-73
2022/09/21 18:56:10;;;;;;;10.07;3.88;;;;;;;22.61;46.06;100810.19;20555036;28;20046;-71
2022/09/21 19:06:17;;;;;;;7.67;3.70;;;;;;;22.63;45.65;100816.22;20557117;28;20031;-72
2022/09/21 19:16:27;;;;;;;8.40;4.15;;;;;;;22.60;46.81;100813.78;20619165;28;20057;-73
2022/09/21 19:26:34;;;;;;;9.25;4.22;;;;;;;22.60;46.89;100823.53;20574970;28;20050;-74
2022/09/21 19:36:35;;;;;;;6.00;3.40;;;;;;;22.54;46.17;100807.22;20578812;28;20050;-72
2022/09/21 19:46:47;;;;;;;5.85;3.53;;;;;;;22.54;46.01;100814.28;20573511;28;20054;-73
2022/09/21 20:07:23;;;;;;;7.28;3.47;;;;;;;22.52;47.58;100813.53;20581409;28;20050;-71
2022/09/21 20:17:35;;;;;;;10.43;3.50;;;;;;;22.50;47.83;100818.13;20586581;28;20058;-72
2022/09/21 20:27:41;;;;;;;5.60;2.97;;;;;;;22.48;47.79;100823.47;20575542;28;20053;-72
2022/09/21 20:37:42;;;;;;;4.55;2.90;;;;;;;22.47;48.00;100828.88;20574986;28;20074;-72
2022/09/21 20:47:42;;;;;;;5.32;2.95;;;;;;;22.45;47.94;100836.94;20571896;28;20049;-71
2022/09/21 20:57:43;;;;;;;6.00;3.10;;;;;;;22.43;47.91;100832.72;20576743;28;20054;-71
2022/09/21 21:07:43;;;;;;;4.03;2.60;;;;;;;22.37;48.42;100823.44;20583169;28;20026;-71
2022/09/21 21:17:47;;;;;;;7.05;2.63;;;;;;;22.35;48.51;100825.34;20593418;28;20051;-71
2022/09/21 21:27:47;;;;;;;5.10;2.72;;;;;;;22.31;48.30;100821.25;20593604;28;20043;-71
2022/09/21 21:37:47;;;;;;;3.40;2.30;;;;;;;22.28;48.60;100817.06;20594139;28;20073;-70
2022/09/21 21:47:48;;;;;;;4.05;2.53;;;;;;;22.27;48.73;100818.00;20582442;28;20049;-71
2022/09/21 21:57:50;;;;;;;6.22;2.67;;;;;;;22.24;48.71;100818.25;20557739;28;20054;-72
2022/09/21 22:07:50;;;;;;;4.50;2.67;;;;;;;22.23;48.65;100820.03;20549620;28;20046;-72
2022/09/21 22:17:50;;;;;;;2.90;2.00;;;;;;;22.22;48.48;100828.06;20572313;28;21377;-72
2022/09/21 22:27:51;;;;;;;3.58;2.40;;;;;;;22.21;48.56;100819.31;20555468;28;20034;-71
2022/09/21 22:37:53;;;;;;;3.10;2.13;;;;;;;22.20;48.86;100809.72;20555976;28;20039;-71
2022/09/21 22:47:53;;;;;;;3.90;2.07;;;;;;;22.16;48.73;100800.34;20554333;28;20047;-72
2022/09/21 22:57:54;;;;;;;3.78;2.40;;;;;;;22.16;48.91;100803.00;20553688;28;20169;-71
2022/09/21 23:07:55;;;;;;;3.42;2.00;;;;;;;22.13;48.79;100799.75;20554441;28;20073;-72
2022/09/21 23:17:56;;;;;;;3.42;2.25;;;;;;;22.11;48.82;100799.88;20549388;28;20047;-72
2022/09/21 23:27:56;;;;;;;2.45;1.90;;;;;;;22.10;49.12;100800.81;20616201;28;20639;-71
2022/09/21 23:37:56;;;;;;;2.33;1.98;;;;;;;22.09;48.63;100799.13;20609717;28;20067;-71
2022/09/21 23:47:57;;;;;;;2.75;1.80;;;;;;;22.09;48.76;100809.69;20547853;28;20045;-71
2022/09/21 23:57:57;;;;;;;3.08;1.83;;;;;;;22.07;49.12;100804.53;20554985;28;20205;-72
